Time;durP1;ratioP1;P1;durP2;ratioP2;P2;SDS_P1;SDS_P2;PMS_P1;PMS_P2;Temp;Humidity;BMP_temperature;BMP_pressure;BME280_temperature;BME280_humidity;BME280_pressure;Samples;Min_cycle;Max_cycle;Signal;HPM_P1;HPM_P2
2023/10/20 00:00:06;;;;;;;15.98;12.88;;;;;;;18.84;45.98;91068.84;6131376;23;20024;-93
2023/10/20 00:02:31;;;;;;;;;;;;;;;18.86;46.61;91060.06;6149955;23;20041;-93
2023/10/20 00:04:57;;;;;;;13.30;10.43;;;;;;;18.83;46.72;91061.97;6129774;23;19931;-92
2023/10/20 00:07:22;;;;;;;13.48;11.35;;;;;;;18.84;47.05;91060.63;6128539;23;20494;-91
2023/10/20 00:09:49;;;;;;;14.45;12.35;;;;;;;18.81;46.40;91058.34;6106949;23;20339;-92
2023/10/20 00:12:16;;;;;;;14.40;10.57;;;;;;;18.82;47.30;91057.78;6127179;23;20041;-92
2023/10/20 00:14:41;;;;;;;17.50;11.88;;;;;;;18.79;46.47;91069.13;6150923;23;20026;-91
2023/10/20 00:17:09;;;;;;;13.27;10.90;;;;;;;18.81;46.83;91056.34;6124675;23;20075;-91
2023/10/20 00:19:34;;;;;;;12.35;10.77;;;;;;;18.82;47.10;91062.53;6101540;23;20017;-92
2023/10/20 00:21:59;;;;;;;12.77;10.70;;;;;;;18.82;47.35;91063.25;6101677;23;20045;-90
2023/10/20 00:24:25;;;;;;;11.75;9.80;;;;;;;18.81;47.04;91053.59;6128686;23;20382;-91
2023/10/20 00:26:50;;;;;;;12.95;10.57;;;;;;;18.80;47.20;91054.88;6130621;23;20683;-92
2023/10/20 00:29:16;;;;;;;12.43;10.50;;;;;;;18.80;46.44;91054.88;6105252;23;20025;-92
2023/10/20 00:31:42;;;;;;;13.10;11.15;;;;;;;18.80;46.92;91046.69;6101422;23;20017;-92
2023/10/20 00:34:07;;;;;;;13.85;11.32;;;;;;;18.79;46.79;91047.25;6163917;23;20050;-91
2023/10/20 00:36:33;;;;;;;13.07;10.63;;;;;;;18.80;46.90;91040.47;6125344;23;20021;-91
2023/10/20 00:38:58;;;;;;;10.88;9.57;;;;;;;18.79;46.82;91039.75;6125332;23;20149;-91
2023/10/20 00:41:24;;;;;;;11.60;9.32;;;;;;;18.79;46.92;91039.75;6127142;23;20025;-90
2023/10/20 00:43:51;;;;;;;13.10;10.38;;;;;;;18.78;46.85;91032.13;6131148;23;20029;-92
2023/10/20 00:46:19;;;;;;;12.55;9.77;;;;;;;18.79;46.78;91028.09;6102010;23;20032;-91
2023/10/20 00:48:45;;;;;;;12.20;10.55;;;;;;;18.80;47.05;91026.78;6126149;23;20017;-92
2023/10/20 00:51:10;;;;;;;13.63;10.30;;;;;;;18.79;46.67;91028.81;6125264;23;20072;-91
2023/10/20 00:53:36;;;;;;;12.88;10.13;;;;;;;18.80;46.79;91016.56;6100708;23;20068;-90
2023/10/20 00:56:04;;;;;;;12.60;9.88;;;;;;;18.78;46.48;91023.91;6101309;23;20405;-92
2023/10/20 00:58:29;;;;;;;11.18;9.45;;;;;;;18.77;46.80;91006.03;6140092;23;20060;-92
2023/10/20 01:00:54;;;;;;;13.93;10.32;;;;;;;18.80;46.91;90999.41;6126264;23;20045;-92
2023/10/20 01:03:20;;;;;;;14.05;11.02;;;;;;;18.77;46.10;91000.56;6100540;23;20017;-91
2023/10/20 01:05:46;;;;;;;11.55;9.02;;;;;;;18.78;47.01;90997.25;6115706;23;20018;-92
2023/10/20 01:08:13;;;;;;;13.00;10.20;;;;;;;18.79;46.99;90993.22;6124655;23;20018;-92
2023/10/20 01:10:38;;;;;;;10.32;8.35;;;;;;;18.81;46.53;90987.91;6114987;23;20057;-92
2023/10/20 01:13:04;;;;;;;11.48;9.15;;;;;;;18.80;46.87;90993.94;6125520;23;20021;-92
2023/10/20 01:15:30;;;;;;;11.02;9.57;;;;;;;18.77;46.65;90995.81;6101050;23;20031;-92
2023/10/20 01:17:55;;;;;;;10.55;8.40;;;;;;;18.79;46.92;90992.50;6117646;23;20076;-91
2023/10/20 01:20:22;;;;;;;11.63;8.70;;;;;;;18.80;46.64;90993.94;6123099;23;20132;-92
2023/10/20 01:22:48;;;;;;;10.23;8.70;;;;;;;18.76;46.82;90988.88;6116674;23;20056;-93
2023/10/20 01:25:15;;;;;;;10.10;8.63;;;;;;;18.78;46.56;90980.09;6100900;23;20025;-92
2023/10/20 01:27:40;;;;;;;9.85;8.85;;;;;;;18.77;46.70;90973.19;6138933;23;20040;-92
2023/10/20 01:30:12;;;;;;;11.55;9.25;;;;;;;18.77;46.75;90982.13;6124680;23;20511;-92
2023/10/20 01:32:38;;;;;;;11.13;9.25;;;;;;;18.76;46.56;90971.75;6126601;23;20101;-91
2023/10/20 01:35:04;;;;;;;11.70;8.40;;;;;;;18.77;46.99;90965.69;6076179;23;20014;-92
2023/10/20 01:37:30;;;;;;;10.93;8.88;;;;;;;18.76;46.43;90967.00;6124445;23;20381;-92
2023/10/20 01:39:56;;;;;;;10.57;8.65;;;;;;;18.75;46.28;90962.09;6117527;23;20017;-90
2023/10/20 01:42:22;;;;;;;8.85;7.57;;;;;;;18.76;46.99;90961.53;6123662;23;20104;-91
2023/10/20 01:44:48;;;;;;;9.13;7.72;;;;;;;18.77;46.96;90962.25;6139816;23;20052;-91
2023/10/20 01:47:14;;;;;;;11.35;8.60;;;;;;;18.77;46.88;90954.03;6124393;23;20052;-91
2023/10/20 01:49:40;;;;;;;11.93;9.20;;;;;;;18.76;46.89;90949.84;6114795;23;20433;-92
2023/10/20 01:52:14;;;;;;;10.85;7.93;;;;;;;18.76;47.14;90949.84;6123863;23;20481;-92
2023/10/20 01:54:39;;;;;;;9.43;7.40;;;;;;;18.76;46.98;90928.69;6103698;23;20319;-91
2023/10/20 01:57:05;;;;;;;9.38;8.07;;;;;;;18.76;46.80;90917.72;6123280;23;20024;-91
2023/10/20 01:59:30;;;;;;;10.48;8.18;;;;;;;18.73;46.81;90907.94;6102886;23;20097;-91
2023/10/20 02:01:56;;;;;;;9.77;7.97;;;;;;;18.77;46.77;90912.97;6119324;23;20028;-92
2023/10/20 02:04:21;;;;;;;9.77;7.80;;;;;;;18.74;46.67;90914.84;6125007;23;20017;-93
2023/10/20 02:06:47;;;;;;;8.65;7.10;;;;;;;18.73;46.97;90913.41;6141008;23;20025;-91
2023/10/20 02:09:12;;;;;;;8.77;7.72;;;;;;;18.73;46.57;90907.94;6126520;23;20018;-92
2023/10/20 02:11:38;;;;;;;9.25;7.60;;;;;;;18.72;46.96;90916.72;6115227;23;20029;-91
2023/10/20 02:14:03;;;;;;;10.60;7.60;;;;;;;18.75;46.99;90908.06;6101113;23;20398;-90
2023/10/20 02:16:30;;;;;;;10.45;7.20;;;;;;;18.75;46.67;90902.59;6126249;23;20159;-91
2023/10/20 02:18:56;;;;;;;9.27;7.43;;;;;;;18.74;47.13;90900.44;6119329;23;20022;-91
2023/10/20 02:21:21;;;;;;;8.85;6.93;;;;;;;18.75;46.88;90907.34;6125278;23;20600;-92
2023/10/20 02:23:47;;;;;;;8.90;6.97;;;;;;;18.74;46.51;90912.09;6117886;23;20041;-91
2023/10/20 02:26:12;;;;;;;8.93;7.38;;;;;;;18.75;47.20;90901.88;6100645;23;20096;-92
2023/10/20 02:28:38;;;;;;;8.20;7.03;;;;;;;18.76;46.97;90881.44;6139748;23;20045;-92
2023/10/20 02:31:14;;;;;;;8.18;6.72;;;;;;;18.74;46.97;90887.47;6101712;23;20032;-92
2023/10/20 02:33:39;;;;;;;8.52;6.68;;;;;;;18.73;46.76;90874.38;6126513;23;20021;-91
2023/10/20 02:36:05;;;;;;;8.50;6.93;;;;;;;18.74;46.63;90864.84;6125193;23;20009;-91
2023/10/20 02:38:30;;;;;;;7.65;6.28;;;;;;;18.74;46.91;90864.84;6101876;23;20131;-93
2023/10/20 02:40:56;;;;;;;7.85;6.32;;;;;;;18.75;47.13;90872.50;6143991;23;20049;-92
2023/10/20 02:43:21;;;;;;;7.75;6.38;;;;;;;18.72;46.72;90865.44;6125003;23;20025;-92
2023/10/20 02:45:53;;;;;;;9.27;6.40;;;;;;;18.71;46.61;90869.47;6092824;23;20096;-90
2023/10/20 02:48:21;;;;;;;8.40;6.80;;;;;;;18.72;47.24;90868.16;6125747;23;20339;-91
2023/10/20 02:50:46;;;;;;;7.65;6.18;;;;;;;18.72;47.22;90870.91;6116752;23;20025;-93
2023/10/20 02:53:13;;;;;;;8.95;6.35;;;;;;;18.71;46.72;90866.00;6100641;23;20092;-90
2023/10/20 02:55:41;;;;;;;8.57;6.85;;;;;;;18.69;46.72;90866.56;6116353;23;20013;-91
2023/10/20 02:58:16;;;;;;;7.72;6.22;;;;;;;18.71;47.08;90853.03;6124954;23;20044;-91
2023/10/20 03:00:44;;;;;;;8.95;7.32;;;;;;;18.73;46.44;90852.47;6126054;23;20105;-92
2023/10/20 03:03:13;;;;;;;8.55;6.30;;;;;;;18.70;47.07;90848.16;6125947;23;20022;-92
2023/10/20 03:05:41;;;;;;;7.25;6.00;;;;;;;18.72;47.10;90857.22;6115599;23;20093;-92
2023/10/20 03:08:08;;;;;;;7.82;6.47;;;;;;;18.73;46.85;90844.25;6125370;23;20084;-91
2023/10/20 03:10:35;;;;;;;8.00;5.97;;;;;;;18.74;47.13;90853.91;6060864;23;20083;-91
2023/10/20 03:13:00;;;;;;;7.55;6.50;;;;;;;18.74;47.03;90849.16;6118813;23;20025;-92
2023/10/20 03:15:26;;;;;;;7.28;5.93;;;;;;;18.72;47.02;90845.56;6071521;23;20323;-91
2023/10/20 03:17:51;;;;;;;8.15;6.50;;;;;;;18.71;46.79;90842.09;6091313;23;20018;-92
2023/10/20 03:20:17;;;;;;;6.85;5.65;;;;;;;18.72;46.69;90842.81;6121267;23;20026;-92
2023/10/20 03:22:44;;;;;;;7.32;6.00;;;;;;;18.72;47.08;90846.28;6115439;23;20516;-92
2023/10/20 03:25:10;;;;;;;7.75;6.00;;;;;;;18.72;47.04;90845.56;6125581;23;20092;-92
2023/10/20 03:27:37;;;;;;;7.22;5.85;;;;;;;18.68;46.77;90845.25;6113602;23;20453;-92
2023/10/20 03:30:12;;;;;;;7.35;5.53;;;;;;;18.70;46.95;90835.19;6100839;23;20021;-93
2023/10/20 03:32:37;;;;;;;7.43;6.28;;;;;;;18.69;47.08;90836.47;6084969;23;20041;-92
2023/10/20 03:35:04;;;;;;;6.35;5.40;;;;;;;18.69;46.97;90838.50;6095591;23;20022;-93
2023/10/20 03:37:34;;;;;;;7.10;5.80;;;;;;;18.70;47.11;90832.44;6125738;23;20025;-92
2023/10/20 03:40:00;;;;;;;6.97;5.18;;;;;;;18.71;47.21;90833.16;6125666;23;20021;-92
2023/10/20 03:42:26;;;;;;;8.15;6.03;;;;;;;18.70;47.21;90824.22;6123395;23;20025;-90
2023/10/20 03:44:51;;;;;;;6.10;5.50;;;;;;;18.71;47.21;90819.47;6095254;23;20073;-93
2023/10/20 03:47:17;;;;;;;5.90;4.80;;;;;;;18.71;46.99;90814.00;6117353;23;20741;-91
2023/10/20 03:49:43;;;;;;;6.10;5.35;;;;;;;18.70;46.91;90809.84;6102069;23;20025;-92
2023/10/20 03:52:11;;;;;;;6.05;5.20;;;;;;;18.70;46.84;90804.34;6099990;23;20101;-92
2023/10/20 03:54:38;;;;;;;6.30;5.40;;;;;;;18.69;47.01;90803.63;6102834;23;20021;-93
2023/10/20 03:57:04;;;;;;;7.60;5.85;;;;;;;18.67;46.87;90797.28;6119745;23;20074;-91
2023/10/20 03:59:34;;;;;;;6.50;5.45;;;;;;;18.68;46.99;90796.00;6096812;23;20026;-91
2023/10/20 04:01:59;;;;;;;6.13;5.30;;;;;;;18.69;47.10;90798.16;6111780;23;20022;-91
2023/10/20 04:04:25;;;;;;;7.30;5.88;;;;;;;18.70;46.85;90790.69;6071829;23;20013;-90
2023/10/20 04:06:50;;;;;;;7.47;5.90;;;;;;;18.69;46.77;90783.75;6107975;23;20110;-90
2023/10/20 04:09:18;;;;;;;5.55;4.95;;;;;;;18.69;47.33;90778.28;6096345;23;20033;-91
2023/10/20 04:11:44;;;;;;;6.47;5.20;;;;;;;18.67;47.01;90769.94;6105719;23;20021;-92
2023/10/20 04:14:10;;;;;;;6.70;5.47;;;;;;;18.70;47.20;90777.00;6095397;23;20014;-92
2023/10/20 04:16:42;;;;;;;6.07;4.80;;;;;;;18.71;47.39;90773.69;6102072;23;20028;-91
2023/10/20 04:19:12;;;;;;;4.97;4.30;;;;;;;18.70;47.28;90766.78;6060136;23;20022;-92
2023/10/20 04:21:40;;;;;;;5.13;4.63;;;;;;;18.71;47.00;90762.72;6096238;23;20022;-91
2023/10/20 04:24:07;;;;;;;5.90;4.78;;;;;;;18.74;47.61;90758.13;6095777;23;20014;-92
2023/10/20 04:26:35;;;;;;;6.07;4.57;;;;;;;18.73;47.36;90762.16;6096708;23;20029;-92
2023/10/20 04:29:23;;;;;;;5.60;4.85;;;;;;;18.73;47.02;90756.69;6111891;23;20068;-92
2023/10/20 04:50:47;;;;;;;8.05;3.85;;;;;;;18.76;47.58;90741.84;6094530;23;20102;-91
2023/10/20 04:58:43;;;;;;;5.30;4.15;;;;;;;18.78;47.49;90726.31;6097378;23;20021;-92
2023/10/20 05:03:49;;;;;;;4.22;3.70;;;;;;;18.76;47.57;90719.97;6097739;23;20022;-93
2023/10/20 05:06:26;;;;;;;3.95;3.10;;;;;;;18.77;47.09;90702.97;6122244;23;20018;-91
2023/10/20 05:08:52;;;;;;;4.35;3.42;;;;;;;18.77;47.57;90708.44;6128121;23;20025;-91
2023/10/20 05:11:18;;;;;;;4.32;3.05;;;;;;;18.76;47.80;90696.06;6100960;23;20021;-92
2023/10/20 05:13:43;;;;;;;4.25;3.33;;;;;;;18.76;47.06;90685.09;6126258;23;20014;-92
2023/10/20 05:16:12;;;;;;;5.00;3.38;;;;;;;18.77;47.25;90675.59;6100955;23;20093;-93
2023/10/20 05:18:41;;;;;;;3.10;2.75;;;;;;;18.79;46.53;90680.50;6114044;23;20116;-90
2023/10/20 05:21:08;;;;;;;3.67;3.03;;;;;;;18.78;47.34;90679.78;6099748;23;20068;-92
2023/10/20 05:23:34;;;;;;;3.97;3.00;;;;;;;18.77;47.31;90678.34;6125873;23;20116;-91
2023/10/20 05:25:59;;;;;;;3.67;3.05;;;;;;;18.80;47.39;90679.19;6101687;23;20092;-90
2023/10/20 05:28:25;;;;;;;2.97;2.53;;;;;;;18.77;46.36;90672.13;6100295;23;20493;-91
2023/10/20 05:30:51;;;;;;;3.33;2.60;;;;;;;18.78;47.06;90662.63;6124923;23;20036;-91
2023/10/20 05:33:16;;;;;;;4.18;3.10;;;;;;;18.77;47.05;90675.59;6100440;23;20021;-91
2023/10/20 05:35:42;;;;;;;2.63;2.30;;;;;;;18.78;47.34;90681.78;6126784;23;20021;-91
2023/10/20 05:38:07;;;;;;;3.97;2.50;;;;;;;18.81;47.58;90672.44;6126723;23;20041;-90
2023/10/20 05:40:36;;;;;;;3.00;2.38;;;;;;;18.76;47.19;90676.91;6126260;23;20023;-92
2023/10/20 05:43:04;;;;;;;3.65;2.80;;;;;;;18.78;47.71;90676.31;6102117;23;20028;-91
2023/10/20 05:45:32;;;;;;;5.78;2.90;;;;;;;18.78;47.17;90681.78;6101582;23;20061;-91
2023/10/20 05:47:59;;;;;;;2.30;1.80;;;;;;;18.79;47.47;90675.75;6127941;23;20025;-90
2023/10/20 05:50:24;;;;;;;2.53;2.30;;;;;;;18.78;47.24;90668.09;6125320;23;20039;-91
2023/10/20 05:52:53;;;;;;;3.00;2.05;;;;;;;18.77;47.12;90652.97;6125290;23;20053;-92
2023/10/20 05:55:19;;;;;;;2.53;1.92;;;;;;;18.78;46.89;90649.66;6125546;23;20032;-92
2023/10/20 05:57:45;;;;;;;2.83;2.30;;;;;;;18.77;47.41;90640.03;6102270;23;20014;-92
2023/10/20 06:00:15;;;;;;;3.08;2.13;;;;;;;18.76;47.47;90624.91;6100156;23;20026;-92
2023/10/20 06:02:41;;;;;;;3.05;2.60;;;;;;;18.77;47.61;90625.63;6128102;23;20014;-90
2023/10/20 06:05:09;;;;;;;4.03;2.20;;;;;;;18.78;47.38;90627.06;6102096;23;20017;-91
2023/10/20 06:07:35;;;;;;;3.30;2.47;;;;;;;18.75;47.30;90623.47;6125555;23;20017;-92
2023/10/20 06:10:01;;;;;;;2.75;2.10;;;;;;;18.77;47.24;90626.34;6102375;23;20497;-90
2023/10/20 06:12:28;;;;;;;1.80;1.63;;;;;;;18.77;47.41;90631.81;6125798;23;20072;-92
2023/10/20 06:14:54;;;;;;;2.80;2.20;;;;;;;18.79;47.65;90639.44;6126645;23;20029;-91
2023/10/20 06:17:20;;;;;;;2.10;1.90;;;;;;;18.76;46.81;90643.34;6125593;23;20069;-92
2023/10/20 06:19:48;;;;;;;2.13;1.70;;;;;;;18.78;46.69;90643.47;6126279;23;20017;-93
2023/10/20 06:22:14;;;;;;;2.83;1.90;;;;;;;18.79;46.71;90644.91;6100644;23;20465;-91
2023/10/20 06:24:39;;;;;;;2.45;2.08;;;;;;;18.81;47.31;90628.63;6126089;23;20021;-92
2023/10/20 06:27:05;;;;;;;2.08;1.73;;;;;;;18.78;47.23;90622.31;6124905;23;20017;-92
2023/10/20 06:34:43;;;;;;;1.83;1.60;;;;;;;18.77;46.58;90609.91;6115272;23;20024;-88
2023/10/20 06:37:11;;;;;;;2.60;1.77;;;;;;;18.77;46.48;90606.47;6122062;23;20088;-91
2023/10/20 06:39:37;;;;;;;2.03;1.50;;;;;;;18.77;46.29;90582.56;6123329;23;20571;-88
2023/10/20 06:42:04;;;;;;;2.05;1.45;;;;;;;18.74;46.41;90580.97;6098042;23;20029;-90
2023/10/20 06:44:30;;;;;;;1.88;1.67;;;;;;;18.76;46.34;90577.66;6122556;23;20017;-89
2023/10/20 06:46:56;;;;;;;1.60;1.40;;;;;;;18.74;46.23;90572.03;6035536;23;20024;-91
2023/10/20 06:49:24;;;;;;;2.30;1.73;;;;;;;18.75;46.23;90582.41;6034088;23;20815;-89
2023/10/20 06:51:49;;;;;;;1.80;1.40;;;;;;;18.78;46.35;90566.84;6011382;23;20573;-91
2023/10/20 06:54:16;;;;;;;17.00;2.08;;;;;;;18.82;47.46;90567.13;6033075;23;20058;-91
2023/10/20 06:56:41;;;;;;;2.00;1.50;;;;;;;18.80;46.58;90564.97;6036621;23;20106;-90
2023/10/20 06:59:12;;;;;;;1.73;1.55;;;;;;;18.79;46.33;90560.78;6033737;23;20026;-91
2023/10/20 07:01:37;;;;;;;1.75;1.10;;;;;;;18.78;46.39;90562.09;6028473;23;20027;-90
2023/10/20 07:04:06;;;;;;;2.72;1.52;;;;;;;18.80;46.31;90559.50;6010578;23;20023;-90
2023/10/20 07:06:31;;;;;;;2.45;1.20;;;;;;;18.80;46.33;90545.81;6034653;23;20050;-91
2023/10/20 07:08:57;;;;;;;1.48;1.38;;;;;;;18.82;46.13;90556.19;6011336;23;20117;-90
2023/10/20 07:11:24;;;;;;;2.38;1.45;;;;;;;18.80;46.51;90521.19;6034148;23;20051;-90
2023/10/20 07:13:50;;;;;;;2.08;1.50;;;;;;;18.79;46.33;90527.97;6010874;23;20034;-91
2023/10/20 07:16:15;;;;;;;1.63;1.50;;;;;;;18.82;46.19;90515.13;6034274;23;20026;-89
2023/10/20 07:18:42;;;;;;;1.63;1.20;;;;;;;18.81;46.86;90513.69;6087576;23;20322;-93
2023/10/20 07:21:07;;;;;;;1.23;0.95;;;;;;;18.84;46.38;90513.22;6073853;23;20020;-89
2023/10/20 07:23:33;;;;;;;2.05;1.42;;;;;;;18.84;46.31;90504.28;6097558;23;20417;-90
2023/10/20 07:26:00;;;;;;;1.45;1.30;;;;;;;18.83;46.25;90498.13;6094519;23;20017;-92
2023/10/20 07:28:27;;;;;;;3.90;1.52;;;;;;;18.83;46.19;90489.91;6099518;23;20054;-90
2023/10/20 07:30:53;;;;;;;1.40;1.13;;;;;;;18.85;46.03;90483.84;6105156;23;20021;-91
2023/10/20 07:33:19;;;;;;;1.95;1.17;;;;;;;18.89;45.79;90480.66;6082241;23;20028;-91
2023/10/20 07:35:44;;;;;;;1.08;0.98;;;;;;;18.88;45.78;90492.91;6085173;23;20026;-91
2023/10/20 07:38:17;;;;;;;0.98;0.88;;;;;;;18.87;46.36;90486.72;6109117;23;20040;-90
2023/10/20 07:40:42;;;;;;;1.40;1.05;;;;;;;18.87;45.90;90485.97;6102379;23;20017;-90
2023/10/20 07:43:10;;;;;;;1.17;0.90;;;;;;;18.90;46.54;90480.06;6103755;23;20022;-92
2023/10/20 07:45:40;;;;;;;1.45;1.20;;;;;;;18.95;46.72;90481.78;6110870;23;20029;-92
2023/10/20 07:48:06;;;;;;;1.40;1.10;;;;;;;18.94;47.03;90479.63;6110379;23;20022;-92
2023/10/20 07:50:31;;;;;;;2.13;1.40;;;;;;;18.94;47.32;90485.09;6087554;23;20451;-90
2023/10/20 07:53:03;;;;;;;2.63;1.60;;;;;;;18.94;47.69;90472.13;6136045;23;20091;-91
2023/10/20 07:55:43;;;;;;;3.78;1.42;;;;;;;18.95;48.14;90472.84;6061740;23;20081;-92
2023/10/20 07:58:15;;;;;;;1.23;1.05;;;;;;;18.95;47.69;90470.09;6123332;23;20052;-91
2023/10/20 08:00:43;;;;;;;2.55;1.05;;;;;;;18.95;47.88;90470.09;6136853;23;20061;-91
2023/10/20 08:03:40;;;;;;;5.28;1.27;;;;;;;18.93;48.13;90450.81;6006216;23;20014;-93
2023/10/20 08:06:10;;;;;;;2.90;1.23;;;;;;;18.93;46.89;90459.03;6071772;23;20057;-92
2023/10/20 08:08:49;;;;;;;2.30;1.42;;;;;;;18.95;47.40;90456.41;6152485;23;20022;-91
2023/10/20 08:11:26;;;;;;;1.85;1.60;;;;;;;18.96;47.98;90450.34;6121360;23;20006;-91
2023/10/20 08:13:57;;;;;;;1.88;1.30;;;;;;;18.96;48.15;90444.88;6111831;23;20033;-92
2023/10/20 08:16:24;;;;;;;1.58;1.02;;;;;;;18.94;48.06;90430.34;6110415;23;20069;-92
2023/10/20 08:19:01;;;;;;;2.28;1.40;;;;;;;18.93;48.66;90434.38;6153804;23;20009;-91
2023/10/20 08:21:39;;;;;;;2.25;1.30;;;;;;;18.96;48.60;90425.72;6169762;23;20051;-91
2023/10/20 08:24:09;;;;;;;1.50;1.13;;;;;;;18.94;49.00;90414.63;6062830;23;20030;-91
2023/10/20 08:26:41;;;;;;;3.15;1.27;;;;;;;18.97;48.84;90418.94;6129709;23;20021;-91
2023/10/20 08:29:12;;;;;;;4.28;1.70;;;;;;;18.94;49.12;90411.19;6065711;23;20019;-90
2023/10/20 08:31:43;;;;;;;3.75;1.80;;;;;;;18.94;49.33;90409.16;6038251;23;20018;-91
2023/10/20 08:34:13;;;;;;;4.63;1.67;;;;;;;18.96;48.34;90411.31;6144039;23;20018;-91
2023/10/20 08:36:43;;;;;;;10.13;7.43;;;;;;;18.94;47.25;90416.66;6109012;23;20018;-92
2023/10/20 08:39:25;;;;;;;7.72;5.20;;;;;;;18.95;48.67;90418.81;6052185;23;20050;-91
2023/10/20 08:41:52;;;;;;;5.25;2.25;;;;;;;18.97;48.65;90401.81;6038884;23;20069;-91
2023/10/20 08:44:33;;;;;;;11.50;7.90;;;;;;;18.96;47.73;90409.31;6111187;23;20025;-92
2023/10/20 08:47:13;;;;;;;9.82;6.72;;;;;;;18.94;47.86;90413.94;6140568;23;20006;-90
2023/10/20 08:49:46;;;;;;;5.00;3.88;;;;;;;18.95;47.47;90415.34;6047088;23;20022;-90
2023/10/20 08:52:43;;;;;;;8.25;6.40;;;;;;;18.95;47.57;90416.06;6060382;23;20025;-91
2023/10/20 08:55:22;;;;;;;11.23;8.57;;;;;;;18.95;47.51;90415.34;6102952;23;20006;-91
2023/10/20 08:58:07;;;;;;;8.93;6.40;;;;;;;18.96;48.52;90408.59;6044287;23;20029;-91
2023/10/20 09:00:46;;;;;;;7.00;5.88;;;;;;;18.94;47.76;90398.22;6014373;23;20019;-91
2023/10/20 09:03:54;;;;;;;16.13;12.93;;;;;;;18.94;47.95;90405.72;5957621;23;20023;-91
2023/10/20 09:06:44;;;;;;;13.02;8.27;;;;;;;18.95;48.42;90399.66;5989998;23;20023;-92
2023/10/20 09:12:20;;;;;;;11.48;8.73;;;;;;;18.95;48.27;90427.03;6144236;23;20021;-90
2023/10/20 09:17:33;;;;;;;11.00;7.75;;;;;;;18.93;48.30;90426.91;6081549;23;20022;-91
2023/10/20 09:20:25;;;;;;;10.90;8.52;;;;;;;18.95;47.59;90424.28;6008249;23;20032;-92
2023/10/20 09:25:50;;;;;;;8.73;6.95;;;;;;;18.94;48.69;90427.63;6135045;23;20038;-91
2023/10/20 09:28:21;;;;;;;8.35;6.35;;;;;;;18.96;48.59;90425.00;6087022;23;20034;-90
2023/10/20 09:31:03;;;;;;;14.80;9.60;;;;;;;18.94;47.77;90411.91;6028094;23;20006;-91
2023/10/20 09:33:32;;;;;;;12.50;8.85;;;;;;;18.91;47.50;90418.53;6022319;23;20027;-92
2023/10/20 09:36:25;;;;;;;13.93;8.90;;;;;;;18.94;47.74;90427.63;6011729;23;20080;-90
2023/10/20 09:39:00;;;;;;;17.50;8.57;;;;;;;18.96;48.54;90430.47;6025150;23;20091;-91
2023/10/20 09:41:45;;;;;;;12.82;9.43;;;;;;;18.93;47.78;90437.84;6032819;23;20038;-92
2023/10/20 09:44:13;;;;;;;11.68;8.15;;;;;;;18.96;47.83;90450.34;6104684;23;20021;-91
2023/10/20 09:47:10;;;;;;;10.73;7.75;;;;;;;18.94;47.90;90465.94;6162564;23;20031;-91
2023/10/20 09:49:38;;;;;;;19.55;8.32;;;;;;;18.95;47.38;90461.91;6183361;23;20690;-91
2023/10/20 09:52:05;;;;;;;14.85;7.43;;;;;;;18.97;48.00;90464.75;6134137;23;20022;-89
2023/10/20 09:54:32;;;;;;;12.25;6.63;;;;;;;18.99;48.32;90467.63;6106966;23;20022;-91
2023/10/20 09:56:58;;;;;;;9.68;6.57;;;;;;;18.98;48.95;90475.13;6133394;23;20040;-89
2023/10/20 09:59:27;;;;;;;9.57;6.20;;;;;;;18.97;48.43;90478.44;6130483;23;20009;-89
2023/10/20 10:01:52;;;;;;;13.77;7.03;;;;;;;18.99;48.66;90489.53;6109548;23;20412;-90
2023/10/20 10:04:36;;;;;;;10.85;6.60;;;;;;;18.99;47.88;90497.75;6130798;23;20025;-90
2023/10/20 10:07:09;;;;;;;13.85;6.53;;;;;;;18.96;47.76;90496.19;6110585;23;20483;-90
2023/10/20 10:09:38;;;;;;;14.63;7.07;;;;;;;19.01;47.78;90498.59;6156270;23;20624;-90
2023/10/20 10:12:14;;;;;;;8.75;6.45;;;;;;;18.99;48.07;90498.47;6131574;23;20014;-90
2023/10/20 10:14:39;;;;;;;7.63;5.65;;;;;;;18.99;48.14;90486.81;6108287;23;20026;-90
2023/10/20 10:17:11;;;;;;;6.88;5.20;;;;;;;19.00;47.93;90480.75;6133202;23;20021;-90
2023/10/20 10:19:48;;;;;;;9.57;5.32;;;;;;;19.00;49.16;90480.75;6133925;23;20021;-90
2023/10/20 10:22:16;;;;;;;8.32;4.32;;;;;;;19.02;49.39;90471.94;6133091;23;20021;-90
2023/10/20 10:24:48;;;;;;;7.00;5.68;;;;;;;19.01;48.08;90478.72;6133969;23;20037;-89
2023/10/20 10:27:16;;;;;;;11.23;8.65;;;;;;;19.02;48.99;90480.88;6109708;23;20405;-90
2023/10/20 10:29:49;;;;;;;15.45;9.43;;;;;;;18.99;48.01;90471.09;6134813;23;20068;-90
2023/10/20 10:32:17;;;;;;;27.73;18.15;;;;;;;18.98;48.14;90477.88;6132412;23;20041;-91
2023/10/20 10:34:46;;;;;;;18.17;13.50;;;;;;;18.98;48.79;90477.88;6132289;23;20017;-91
2023/10/20 10:37:11;;;;;;;19.08;13.68;;;;;;;18.95;48.54;90476.28;6077270;23;20093;-90
2023/10/20 10:39:37;;;;;;;19.92;17.58;;;;;;;18.96;48.47;90461.31;6078964;23;20450;-90
2023/10/20 10:42:03;;;;;;;17.95;11.75;;;;;;;18.98;48.88;90455.25;6101936;23;20017;-90
2023/10/20 10:44:36;;;;;;;20.20;13.85;;;;;;;18.97;48.49;90453.81;6075794;23;20026;-89
2023/10/20 10:47:03;;;;;;;37.15;33.20;;;;;;;18.95;48.90;90448.94;6063409;23;20033;-90
2023/10/20 10:49:31;;;;;;;36.90;29.88;;;;;;;18.96;48.64;90461.31;6023320;23;20511;-90
2023/10/20 10:51:58;;;;;;;40.10;33.33;;;;;;;18.99;48.32;90457.41;6024621;23;20058;-91
2023/10/20 10:54:24;;;;;;;48.72;41.90;;;;;;;18.95;48.36;90459.16;6050583;23;20082;-91
2023/10/20 10:56:49;;;;;;;51.03;42.47;;;;;;;18.92;48.36;90460.31;6029929;23;20027;-91
2023/10/20 10:59:15;;;;;;;34.65;30.38;;;;;;;18.94;48.65;90472.13;6030008;23;20030;-91
2023/10/20 11:01:42;;;;;;;35.53;31.67;;;;;;;18.93;48.41;90459.75;6029291;23;20015;-91
2023/10/20 11:04:13;;;;;;;31.65;23.65;;;;;;;18.95;48.62;90459.16;6028070;23;20014;-90
2023/10/20 11:06:40;;;;;;;32.67;24.58;;;;;;;18.96;48.54;90457.84;5991912;23;20056;-90
2023/10/20 11:09:10;;;;;;;34.30;25.92;;;;;;;18.96;48.93;90455.13;5977181;23;20024;-89
2023/10/20 11:11:42;;;;;;;55.08;41.83;;;;;;;18.92;49.01;90446.63;5990736;23;20024;-91
2023/10/20 11:14:10;;;;;;;48.65;40.80;;;;;;;18.93;49.37;90451.53;5989888;23;20499;-91
2023/10/20 11:16:45;;;;;;;45.15;39.67;;;;;;;18.94;49.18;90446.78;5990475;23;20049;-90
2023/10/20 11:19:14;;;;;;;55.50;43.33;;;;;;;18.96;49.12;90446.91;6022566;23;20028;-91
2023/10/20 11:21:44;;;;;;;51.38;37.33;;;;;;;18.95;48.74;90445.47;6000060;23;20027;-90
2023/10/20 11:24:11;;;;;;;49.35;43.95;;;;;;;18.93;48.69;90445.34;6045717;23;20028;-91
2023/10/20 11:26:54;;;;;;;55.20;45.67;;;;;;;18.91;48.51;90445.91;6023888;23;20035;-90
2023/10/20 11:29:21;;;;;;;49.38;41.22;;;;;;;18.92;48.90;90443.91;6045783;23;20031;-91
2023/10/20 11:31:50;;;;;;;39.65;30.95;;;;;;;18.93;49.52;90443.31;6023939;23;20087;-90
2023/10/20 11:34:16;;;;;;;50.63;42.60;;;;;;;18.92;49.26;90446.63;6017785;23;20035;-90
2023/10/20 11:36:43;;;;;;;55.47;42.00;;;;;;;18.93;48.58;90435.09;6040159;23;20027;-90
2023/10/20 11:39:08;;;;;;;52.40;43.33;;;;;;;18.93;48.86;90442.59;6062119;23;20026;-92
2023/10/20 11:41:34;;;;;;;61.47;46.75;;;;;;;18.91;49.10;90445.91;6056991;23;20501;-90
2023/10/20 11:43:59;;;;;;;55.80;43.30;;;;;;;18.93;48.98;90448.78;6079068;23;20037;-92
2023/10/20 11:46:24;;;;;;;59.22;45.80;;;;;;;18.92;49.05;90463.06;6113677;23;20307;-91
2023/10/20 11:48:50;;;;;;;62.88;47.08;;;;;;;18.93;49.33;90465.22;6127421;23;20071;-91
2023/10/20 11:51:15;;;;;;;55.53;47.53;;;;;;;18.94;48.85;90465.94;6101579;23;20021;-91
2023/10/20 11:53:41;;;;;;;53.42;44.20;;;;;;;18.94;48.77;90469.38;6105364;23;20028;-91
2023/10/20 11:56:10;;;;;;;51.45;41.92;;;;;;;18.93;49.30;90465.22;6127762;23;20116;-91
2023/10/20 11:58:37;;;;;;;52.80;42.22;;;;;;;18.93;48.92;90465.22;6119871;23;20021;-91
2023/10/20 12:01:03;;;;;;;51.13;38.22;;;;;;;18.93;49.47;90467.94;6130078;23;20075;-90
2023/10/20 12:03:29;;;;;;;62.92;43.33;;;;;;;18.95;49.11;90473.56;6130675;23;20021;-91
2023/10/20 12:05:55;;;;;;;59.53;44.72;;;;;;;18.92;48.79;90468.53;6129524;23;20020;-90
2023/10/20 12:08:22;;;;;;;53.65;42.80;;;;;;;18.94;49.96;90461.19;6128986;23;20095;-91
2023/10/20 12:10:48;;;;;;;62.50;47.17;;;;;;;18.94;49.04;90452.97;6129780;23;20063;-91
2023/10/20 12:13:14;;;;;;;56.47;39.97;;;;;;;18.93;49.18;90448.78;6105287;23;20025;-91
2023/10/20 12:15:40;;;;;;;58.92;44.72;;;;;;;18.92;48.89;90452.81;6131719;23;20032;-92